createdAt,value
2023-03-05T00:01:15.584Z,8.07
2023-03-05T00:03:43.987Z,8.07
2023-03-05T00:06:12.459Z,7.70
2023-03-05T00:08:40.890Z,8.30
2023-03-05T00:11:12.082Z,7.90
2023-03-05T00:13:40.978Z,7.93
2023-03-05T00:16:11.475Z,7.90
2023-03-05T00:18:41.364Z,8.13
2023-03-05T00:21:20.548Z,7.40
2023-03-05T00:23:50.895Z,7.27
2023-03-05T00:26:19.378Z,7.30
2023-03-05T00:28:50.056Z,7.67
2023-03-05T00:31:19.177Z,7.27
2023-03-05T00:33:53.300Z,7.50
2023-03-05T00:36:21.594Z,7.30
2023-03-05T00:38:50.106Z,7.77
2023-03-05T00:41:18.757Z,6.70
2023-03-05T00:43:47.131Z,7.67
2023-03-05T00:46:15.601Z,7.00
2023-03-05T00:48:44.417Z,7.73
2023-03-05T00:51:14.265Z,7.10
2023-03-05T00:53:42.548Z,7.83
2023-03-05T00:56:10.921Z,8.10
2023-03-05T00:58:39.561Z,13.03
2023-03-05T01:01:08.621Z,10.80
2023-03-05T01:03:37.566Z,12.00
2023-03-05T01:06:08.572Z,11.43
2023-03-05T01:08:38.798Z,10.07
2023-03-05T01:11:08.358Z,8.87
2023-03-05T01:13:37.133Z,10.10
2023-03-05T01:16:06.735Z,9.03
2023-03-05T01:18:35.536Z,8.60
2023-03-05T01:21:05.180Z,8.70
2023-03-05T01:23:34.615Z,9.00
2023-03-05T01:26:04.845Z,8.50
2023-03-05T01:28:33.870Z,7.70
2023-03-05T01:31:02.254Z,10.10
2023-03-05T01:33:30.681Z,10.20
2023-03-05T01:35:59.073Z,9.83
2023-03-05T01:38:27.558Z,9.67
2023-03-05T01:40:55.936Z,9.53
2023-03-05T01:43:28.310Z,9.20
2023-03-05T01:46:36.291Z,9.50
2023-03-05T01:49:16.707Z,9.53
2023-03-05T01:51:56.551Z,9.30
2023-03-05T01:54:29.647Z,10.87
2023-03-05T01:57:00.647Z,10.50
2023-03-05T01:59:30.537Z,9.03
2023-03-05T02:02:00.558Z,11.03
2023-03-05T02:04:36.558Z,9.83
2023-03-05T02:07:05.214Z,10.77
2023-03-05T02:09:33.521Z,10.80
2023-03-05T02:12:01.863Z,10.30
2023-03-05T02:14:31.775Z,11.80
2023-03-05T02:17:00.225Z,11.03
2023-03-05T02:19:28.741Z,10.57
2023-03-05T02:21:58.512Z,11.60
2023-03-05T02:24:36.695Z,11.10
2023-03-05T02:27:06.585Z,10.33
2023-03-05T02:29:39.122Z,10.70
2023-03-05T02:32:08.782Z,10.80
2023-03-05T02:34:37.662Z,10.23
2023-03-05T02:37:09.497Z,11.40
2023-03-05T02:39:39.785Z,11.03
2023-03-05T02:42:08.491Z,10.37
2023-03-05T02:44:36.853Z,14.03
2023-03-05T02:47:05.232Z,10.50
2023-03-05T02:49:33.613Z,11.20
2023-03-05T02:52:01.993Z,10.03
2023-03-05T02:54:31.811Z,10.67
2023-03-05T02:57:00.242Z,9.83
2023-03-05T02:59:28.518Z,10.17
2023-03-05T03:01:56.853Z,11.27
2023-03-05T03:04:25.987Z,10.50
2023-03-05T03:06:54.314Z,10.80
2023-03-05T03:09:22.632Z,11.07
2023-03-05T03:11:52.356Z,13.03
2023-03-05T03:14:20.976Z,12.30
2023-03-05T03:16:49.683Z,11.67
2023-03-05T03:19:18.001Z,11.67
2023-03-05T03:21:46.360Z,12.20
2023-03-05T03:24:14.667Z,13.17
2023-03-05T03:26:43.211Z,12.00
2023-03-05T03:29:13.023Z,11.97
2023-03-05T03:31:41.830Z,11.40
2023-03-05T03:34:10.118Z,12.17
2023-03-05T03:36:38.652Z,11.50
2023-03-05T03:39:09.923Z,12.13
2023-03-05T03:41:38.276Z,12.30
2023-03-05T03:44:08.877Z,11.80
2023-03-05T03:46:39.585Z,12.37
2023-03-05T03:49:09.571Z,12.73
2023-03-05T03:51:37.888Z,11.67
2023-03-05T03:54:06.306Z,12.73
2023-03-05T03:56:34.642Z,12.50
2023-03-05T03:59:02.999Z,13.33
2023-03-05T04:01:31.302Z,12.50
2023-03-05T04:04:01.085Z,12.73
2023-03-05T04:06:29.378Z,14.30
2023-03-05T04:08:57.853Z,13.70
2023-03-05T04:11:26.765Z,12.07
2023-03-05T04:13:55.082Z,14.20
2023-03-05T04:16:23.524Z,13.80
2023-03-05T04:18:51.841Z,14.90
2023-03-05T04:21:21.528Z,12.80
2023-03-05T04:23:49.977Z,14.57
2023-03-05T04:26:18.301Z,14.43
2023-03-05T04:28:46.628Z,13.87
2023-03-05T04:31:15.185Z,14.37
2023-03-05T04:33:43.550Z,13.87
2023-03-05T04:36:11.839Z,13.57
2023-03-05T04:38:41.621Z,15.10
2023-03-05T04:41:09.940Z,14.37
2023-03-05T04:43:38.298Z,13.83
2023-03-05T04:46:06.840Z,14.53
2023-03-05T04:48:35.238Z,13.37
2023-03-05T04:51:03.696Z,13.00
2023-03-05T04:53:31.969Z,14.77
2023-03-05T04:56:02.492Z,15.93
2023-03-05T04:58:31.254Z,16.43
2023-03-05T05:01:03.738Z,17.50
2023-03-05T05:03:32.368Z,16.27
2023-03-05T05:06:01.948Z,16.40
2023-03-05T05:08:31.102Z,17.70
2023-03-05T05:11:03.317Z,18.00
2023-03-05T05:13:32.734Z,17.80
2023-03-05T05:16:01.180Z,21.70
2023-03-05T05:18:29.573Z,22.70
2023-03-05T05:20:58.141Z,19.70
2023-03-05T05:23:26.483Z,21.40
2023-03-05T05:25:58.956Z,19.67
2023-03-05T05:28:29.268Z,19.30
2023-03-05T05:30:57.733Z,17.63
2023-03-05T05:33:27.076Z,17.43
2023-03-05T05:35:55.483Z,18.53
2023-03-05T05:38:23.782Z,19.33
2023-03-05T05:40:52.100Z,22.60
2023-03-05T05:43:20.649Z,23.63
2023-03-05T05:45:50.445Z,25.23
2023-03-05T05:48:18.788Z,24.17
2023-03-05T05:50:47.096Z,22.20
2023-03-05T05:53:15.598Z,17.97
2023-03-05T05:55:43.907Z,19.13
2023-03-05T05:58:12.449Z,20.30
2023-03-05T06:00:40.813Z,24.63
2023-03-05T06:03:10.771Z,23.40
2023-03-05T06:05:39.096Z,19.40
2023-03-05T06:08:07.530Z,18.50
2023-03-05T06:10:36.170Z,17.00
2023-03-05T06:13:04.476Z,17.53
2023-03-05T06:15:33.211Z,18.77
2023-03-05T06:18:02.099Z,22.00
2023-03-05T06:20:31.766Z,21.70
2023-03-05T06:23:00.043Z,23.03
2023-03-05T06:25:28.578Z,22.30
2023-03-05T06:27:59.807Z,23.40
2023-03-05T06:30:28.195Z,22.50
2023-03-05T06:32:56.522Z,21.40
2023-03-05T06:35:25.010Z,23.43
2023-03-05T06:37:54.740Z,22.17
2023-03-05T06:40:23.203Z,25.17
2023-03-05T06:42:51.500Z,23.40
2023-03-05T06:45:19.953Z,22.33
2023-03-05T06:47:48.319Z,19.67
2023-03-05T06:50:16.840Z,19.47
2023-03-05T06:52:45.271Z,17.57
2023-03-05T06:55:15.083Z,17.57
2023-03-05T06:57:43.446Z,18.63
2023-03-05T07:00:13.036Z,17.00
2023-03-05T07:02:41.864Z,18.07
2023-03-05T07:05:10.697Z,16.23
2023-03-05T07:07:39.166Z,18.30
2023-03-05T07:10:08.915Z,18.10
2023-03-05T07:12:38.902Z,18.30
2023-03-05T07:15:08.489Z,18.60
2023-03-05T07:17:36.916Z,17.90
2023-03-05T07:20:06.451Z,18.50
2023-03-05T07:22:34.738Z,18.10
2023-03-05T07:25:03.287Z,18.70
2023-03-05T07:27:31.615Z,18.00
2023-03-05T07:30:01.514Z,18.00
2023-03-05T07:32:29.927Z,19.00
2023-03-05T07:34:58.302Z,19.30
2023-03-05T07:37:26.775Z,18.13
2023-03-05T07:39:55.196Z,17.57
2023-03-05T07:42:23.566Z,18.80
2023-03-05T07:44:51.926Z,19.50
2023-03-05T07:47:23.386Z,17.57
2023-03-05T07:49:51.763Z,18.70
2023-03-05T07:52:20.308Z,18.00
2023-03-05T07:54:48.749Z,17.27
2023-03-05T07:57:17.047Z,17.03
2023-03-05T07:59:45.305Z,18.93
2023-03-05T08:02:14.549Z,18.23
2023-03-05T08:04:44.353Z,18.80
2023-03-05T08:07:16.416Z,18.80
2023-03-05T08:09:44.833Z,16.67
2023-03-05T08:12:13.172Z,17.87
2023-03-05T08:14:41.548Z,17.53
2023-03-05T08:17:09.872Z,18.97
2023-03-05T08:19:38.222Z,17.10
2023-03-05T08:22:08.122Z,18.83
2023-03-05T08:24:36.452Z,19.27
2023-03-05T08:27:04.845Z,19.07
2023-03-05T08:29:33.138Z,20.23
2023-03-05T08:32:01.853Z,18.63
2023-03-05T08:34:30.410Z,19.97
2023-03-05T08:36:58.657Z,19.20
2023-03-05T08:39:30.254Z,19.80
2023-03-05T08:41:58.666Z,17.60
2023-03-05T08:44:27.019Z,19.60
2023-03-05T08:46:55.464Z,19.20
2023-03-05T08:49:24.002Z,20.17
2023-03-05T08:51:52.404Z,20.37
2023-03-05T08:54:20.670Z,20.97
2023-03-05T08:56:50.928Z,19.77
2023-03-05T08:59:19.282Z,18.63
2023-03-05T09:01:48.065Z,17.17
2023-03-05T09:04:16.742Z,18.00
2023-03-05T09:06:45.109Z,17.70
2023-03-05T09:09:14.429Z,16.17
2023-03-05T09:11:42.863Z,17.07
2023-03-05T09:14:12.753Z,15.23
2023-03-05T09:16:41.756Z,16.03
2023-03-05T09:19:12.768Z,15.50
2023-03-05T09:21:41.096Z,16.30
2023-03-05T09:24:09.883Z,15.43
2023-03-05T09:26:38.150Z,14.50
2023-03-05T09:29:07.699Z,16.73
2023-03-05T09:31:37.631Z,16.20
2023-03-05T09:34:08.338Z,15.40
2023-03-05T09:36:36.681Z,16.47
2023-03-05T09:39:07.036Z,17.50
2023-03-05T09:41:51.392Z,18.13
2023-03-05T09:44:28.089Z,18.60
2023-03-05T09:47:10.200Z,14.73
2023-03-05T09:49:51.517Z,15.70
2023-03-05T09:52:23.496Z,17.47
2023-03-05T09:54:57.191Z,17.40
2023-03-05T09:57:34.302Z,21.40
2023-03-05T10:00:09.021Z,19.03
2023-03-05T10:02:48.113Z,18.60
2023-03-05T10:05:22.706Z,17.60
2023-03-05T10:07:57.046Z,20.43
2023-03-05T10:10:28.766Z,20.33
2023-03-05T10:13:01.749Z,20.30
2023-03-05T10:15:41.631Z,20.70
2023-03-05T10:18:24.208Z,19.87
2023-03-05T10:20:59.204Z,20.40
2023-03-05T10:23:31.889Z,20.60
2023-03-05T10:26:12.060Z,20.00
2023-03-05T10:28:47.991Z,22.50
2023-03-05T10:31:29.649Z,21.50
2023-03-05T10:34:13.638Z,16.80
2023-03-05T10:37:01.237Z,16.73
2023-03-05T10:39:56.150Z,17.40
2023-03-05T10:42:34.201Z,17.37
2023-03-05T10:45:14.258Z,17.00
2023-03-05T10:47:51.641Z,16.43
2023-03-05T10:50:24.367Z,16.53
2023-03-05T10:53:04.400Z,15.60
2023-03-05T10:55:32.705Z,18.63
2023-03-05T10:58:02.787Z,17.20
2023-03-05T11:00:32.388Z,16.70
2023-03-05T11:03:03.742Z,14.43
2023-03-05T11:05:49.726Z,16.10
2023-03-05T11:08:31.125Z,16.93
2023-03-05T11:11:12.962Z,16.33
2023-03-05T11:13:52.508Z,16.80
2023-03-05T11:16:23.576Z,16.87
2023-03-05T11:19:11.910Z,22.10
2023-03-05T11:21:41.958Z,20.23
2023-03-05T11:24:15.090Z,19.70
2023-03-05T11:26:51.451Z,18.50
2023-03-05T11:29:23.717Z,16.67
2023-03-05T11:31:53.439Z,19.57
2023-03-05T11:34:36.044Z,19.43
2023-03-05T11:37:08.139Z,15.20
2023-03-05T11:39:39.066Z,17.10
2023-03-05T11:42:14.414Z,18.40
2023-03-05T11:44:48.238Z,17.10
2023-03-05T11:47:27.953Z,16.80
2023-03-05T11:50:02.368Z,18.30
2023-03-05T11:52:35.390Z,16.10
2023-03-05T11:55:08.849Z,16.83
2023-03-05T11:57:44.973Z,18.70
2023-03-05T12:00:19.182Z,16.93
2023-03-05T12:02:51.990Z,18.33
2023-03-05T12:05:21.922Z,17.53
2023-03-05T12:07:55.477Z,18.17
2023-03-05T12:10:26.508Z,17.23
2023-03-05T12:13:06.446Z,17.93
2023-03-05T12:15:48.015Z,18.17
2023-03-05T12:18:31.948Z,15.00
2023-03-05T12:21:07.650Z,18.50
2023-03-05T12:23:51.928Z,15.47
2023-03-05T12:26:40.796Z,16.07
2023-03-05T12:29:29.187Z,17.40
2023-03-05T12:31:57.891Z,16.50
2023-03-05T12:34:49.956Z,17.93
2023-03-05T12:37:51.464Z,17.50
2023-03-05T12:40:25.962Z,16.33
2023-03-05T12:42:59.455Z,16.93
2023-03-05T12:45:39.569Z,15.73
2023-03-05T12:48:43.654Z,15.17
2023-03-05T12:51:29.420Z,16.30
2023-03-05T12:53:58.113Z,16.50
2023-03-05T12:56:32.794Z,19.60
2023-03-05T12:59:04.953Z,16.80
2023-03-05T13:01:42.057Z,17.17
2023-03-05T13:04:21.227Z,15.13
2023-03-05T13:07:00.319Z,15.90
2023-03-05T13:09:31.609Z,15.83
2023-03-05T13:12:02.051Z,17.77
2023-03-05T13:14:35.991Z,17.10
2023-03-05T13:17:24.922Z,18.87
2023-03-05T13:19:53.962Z,19.10
2023-03-05T13:22:24.703Z,19.17
2023-03-05T13:25:14.711Z,18.27
2023-03-05T13:27:45.239Z,18.07
2023-03-05T13:30:25.802Z,20.53
2023-03-05T13:32:56.304Z,17.10
2023-03-05T13:35:24.814Z,19.53
2023-03-05T13:37:53.331Z,19.77
2023-03-05T13:40:25.086Z,18.93
2023-03-05T13:42:56.794Z,19.63
2023-03-05T13:45:29.035Z,21.73
2023-03-05T13:47:59.528Z,28.10
2023-03-05T13:50:30.125Z,21.40
2023-03-05T13:53:15.743Z,42.07
2023-03-05T13:55:44.380Z,23.83
2023-03-05T13:58:48.809Z,22.00
2023-03-05T14:01:28.936Z,25.83
2023-03-05T14:04:37.356Z,21.23
2023-03-05T14:07:08.184Z,22.43
2023-03-05T14:09:48.341Z,24.17
2023-03-05T14:12:30.367Z,24.00
2023-03-05T14:15:02.456Z,21.00
2023-03-05T14:17:41.925Z,21.67
2023-03-05T14:20:27.468Z,23.57
2023-03-05T14:22:58.141Z,23.80
2023-03-05T14:25:35.036Z,23.20
2023-03-05T14:28:05.034Z,25.03
2023-03-05T14:30:36.320Z,22.73
2023-03-05T14:33:05.566Z,23.23
2023-03-05T14:35:34.386Z,22.17
2023-03-05T14:38:02.845Z,21.10
2023-03-05T14:40:33.452Z,22.60
2023-03-05T14:43:03.087Z,24.40
2023-03-05T14:45:33.147Z,21.43
2023-03-05T14:48:04.730Z,23.83
2023-03-05T14:50:38.080Z,23.57
2023-03-05T14:53:10.345Z,23.03
2023-03-05T14:55:39.904Z,22.50
2023-03-05T14:58:13.830Z,25.10
2023-03-05T15:00:43.018Z,27.40
2023-03-05T15:03:14.241Z,22.93
2023-03-05T15:05:43.655Z,23.30
2023-03-05T15:08:16.384Z,22.00
2023-03-05T15:10:44.718Z,21.97
2023-03-05T15:13:18.307Z,21.90
2023-03-05T15:15:48.828Z,21.60
2023-03-05T15:18:21.263Z,23.50
2023-03-05T15:20:52.104Z,21.23
2023-03-05T15:23:20.506Z,23.47
2023-03-05T15:25:49.103Z,23.73
2023-03-05T15:28:17.670Z,24.00
2023-03-05T15:30:48.202Z,20.97
2023-03-05T15:33:19.085Z,23.00
2023-03-05T15:35:47.564Z,24.90
2023-03-05T15:38:16.321Z,22.57
2023-03-05T15:40:46.169Z,25.23
2023-03-05T15:43:15.195Z,22.00
2023-03-05T15:45:43.693Z,23.47
2023-03-05T15:48:12.032Z,24.10
2023-03-05T15:50:43.769Z,24.43
2023-03-05T15:53:15.698Z,25.37
2023-03-05T15:55:45.275Z,26.63
2023-03-05T15:58:16.920Z,26.43
2023-03-05T16:00:47.430Z,26.50
2023-03-05T16:03:15.949Z,23.73
2023-03-05T16:05:45.805Z,27.17
2023-03-05T16:08:14.449Z,27.73
2023-03-05T16:10:42.980Z,26.23
2023-03-05T16:13:14.711Z,26.67
2023-03-05T16:15:44.544Z,26.57
2023-03-05T16:18:15.538Z,28.37
2023-03-05T16:20:45.452Z,29.63
2023-03-05T16:23:14.003Z,31.63
2023-03-05T16:25:42.401Z,27.47
2023-03-05T16:28:11.451Z,26.53
2023-03-05T16:30:40.032Z,28.47
2023-03-05T16:33:08.676Z,32.40
2023-03-05T16:35:37.115Z,33.17
2023-03-05T16:38:08.534Z,30.73
2023-03-05T16:41:06.084Z,28.73
2023-03-05T16:43:27.594Z,31.67
2023-03-05T16:45:55.915Z,28.50
2023-03-05T16:48:24.454Z,34.43
2023-03-05T16:50:52.807Z,36.33
2023-03-05T16:53:22.485Z,34.40
2023-03-05T16:55:50.960Z,34.90
2023-03-05T16:58:19.372Z,33.73
2023-03-05T17:00:49.129Z,32.60
2023-03-05T17:03:17.597Z,30.77
2023-03-05T17:05:45.905Z,30.50
2023-03-05T17:08:15.208Z,32.70
2023-03-05T17:10:45.457Z,34.13
2023-03-05T17:13:14.100Z,36.97
2023-03-05T17:18:11.936Z,33.20
2023-03-05T17:20:40.954Z,34.97
2023-03-05T17:23:09.292Z,34.70
2023-03-05T17:25:38.286Z,33.80
2023-03-05T17:28:08.163Z,33.73
2023-03-05T17:30:37.228Z,29.60
2023-03-05T17:33:06.388Z,30.67
2023-03-05T17:35:35.384Z,30.10
2023-03-05T17:38:05.426Z,29.53
2023-03-05T17:40:33.875Z,32.40
2023-03-05T17:43:02.474Z,29.20
2023-03-05T17:45:32.644Z,31.10
2023-03-05T17:48:01.065Z,32.07
2023-03-05T17:50:29.733Z,29.80
2023-03-05T17:52:58.117Z,30.93
2023-03-05T17:55:26.538Z,29.60
2023-03-05T17:57:55.103Z,30.60
2023-03-05T18:00:24.986Z,31.50
2023-03-05T18:02:55.171Z,31.60
2023-03-05T18:05:25.120Z,31.67
2023-03-05T18:07:54.975Z,35.90
2023-03-05T18:10:25.460Z,33.17
2023-03-05T18:12:54.358Z,33.80
2023-03-05T18:15:24.679Z,37.83
2023-03-05T18:17:54.841Z,38.20
2023-03-05T18:20:28.067Z,34.73
2023-03-05T18:22:57.269Z,30.70
2023-03-05T18:25:31.309Z,29.90
2023-03-05T18:28:00.543Z,31.40
2023-03-05T18:30:30.550Z,29.80
2023-03-05T18:33:00.727Z,31.10
2023-03-05T18:35:30.282Z,30.10
2023-03-05T18:37:59.000Z,30.77
2023-03-05T18:40:29.435Z,31.33
2023-03-05T18:43:00.255Z,30.00
2023-03-05T18:45:29.123Z,29.17
2023-03-05T18:47:57.965Z,30.67
2023-03-05T18:50:29.206Z,30.63
2023-03-05T18:52:57.552Z,28.00
2023-03-05T18:55:27.825Z,29.60
2023-03-05T18:57:56.832Z,30.63
2023-03-05T19:00:27.370Z,28.77
2023-03-05T19:02:56.905Z,28.70
2023-03-05T19:05:28.094Z,29.23
2023-03-05T19:07:57.064Z,33.97
2023-03-05T19:10:25.474Z,31.83
2023-03-05T19:13:34.553Z,33.13
2023-03-05T19:16:08.557Z,34.17
2023-03-05T19:18:44.019Z,33.33
2023-03-05T19:21:13.872Z,32.70
2023-03-05T19:23:42.383Z,34.67
2023-03-05T19:26:10.712Z,33.37
2023-03-05T19:28:38.985Z,33.73
2023-03-05T19:31:07.510Z,37.70
2023-03-05T19:33:36.014Z,35.77
2023-03-05T19:36:04.353Z,39.37
2023-03-05T19:38:34.194Z,32.70
2023-03-05T19:41:02.523Z,34.27
2023-03-05T19:43:31.036Z,34.13
2023-03-05T19:46:02.247Z,37.37
2023-03-05T19:48:32.006Z,38.47
2023-03-05T19:51:00.781Z,41.30
2023-03-05T19:53:29.259Z,41.10
2023-03-05T19:55:59.144Z,38.43
2023-03-05T19:58:27.511Z,39.50
2023-03-05T20:00:55.783Z,44.40
2023-03-05T20:03:24.129Z,44.10
2023-03-05T20:05:52.407Z,43.20
2023-03-05T20:08:21.068Z,42.30
2023-03-05T20:10:49.457Z,43.13
2023-03-05T20:13:19.317Z,37.73
2023-03-05T20:15:47.735Z,35.00
2023-03-05T20:18:16.155Z,35.93
2023-03-05T20:20:44.575Z,32.67
2023-03-05T20:23:13.086Z,34.43
2023-03-05T20:25:41.545Z,36.50
2023-03-05T20:28:10.024Z,34.60
2023-03-05T20:30:39.981Z,39.40
2023-03-05T20:33:08.539Z,36.23
2023-03-05T20:35:36.879Z,39.83
2023-03-05T20:38:25.135Z,38.30
2023-03-05T20:40:54.720Z,36.73
2023-03-05T20:43:24.411Z,36.67
2023-03-05T20:45:54.724Z,36.33
2023-03-05T20:48:23.326Z,34.80
2023-03-05T20:50:51.840Z,33.73
2023-03-05T20:53:20.935Z,32.83
2023-03-05T20:55:49.572Z,32.10
2023-03-05T20:58:18.441Z,35.50
2023-03-05T21:00:46.801Z,31.33
2023-03-05T21:03:16.667Z,30.50
2023-03-05T21:05:46.158Z,30.00
2023-03-05T21:08:14.634Z,32.63
2023-03-05T21:10:42.960Z,31.60
2023-03-05T21:13:11.384Z,34.00
2023-03-05T21:15:42.093Z,33.23
2023-03-05T21:18:12.105Z,35.83
2023-03-05T21:20:41.882Z,36.53
2023-03-05T21:23:10.342Z,36.40
2023-03-05T21:25:38.771Z,37.00
2023-03-05T21:28:09.541Z,35.63
2023-03-05T21:30:42.144Z,34.30
2023-03-05T21:33:13.159Z,34.30
2023-03-05T21:35:43.136Z,32.97
2023-03-05T21:38:12.404Z,32.33
2023-03-05T21:40:45.455Z,35.50
2023-03-05T21:43:14.651Z,35.87
2023-03-05T21:45:43.746Z,33.60
2023-03-05T21:48:12.163Z,36.80
2023-03-05T21:50:43.611Z,36.10
2023-03-05T21:53:14.774Z,39.03
2023-03-05T21:56:28.296Z,39.73
2023-03-05T21:58:56.894Z,40.80
2023-03-05T22:01:25.300Z,45.83
2023-03-05T22:03:54.132Z,42.67
2023-03-05T22:06:24.321Z,37.40
2023-03-05T22:08:52.631Z,36.67
2023-03-05T22:11:22.531Z,32.70
2023-03-05T22:13:51.001Z,31.20
2023-03-05T22:16:24.363Z,31.73
2023-03-05T22:18:53.243Z,31.03
2023-03-05T22:21:25.875Z,31.60
2023-03-05T22:23:57.224Z,32.00
2023-03-05T22:26:26.651Z,30.67
2023-03-05T22:28:55.111Z,30.97
2023-03-05T22:31:25.534Z,31.20
2023-03-05T22:33:54.380Z,31.87
2023-03-05T22:36:24.879Z,32.10
2023-03-05T22:38:53.726Z,29.80
2023-03-05T22:41:22.734Z,32.60
2023-03-05T22:43:52.630Z,31.20
2023-03-05T22:46:23.652Z,30.43
2023-03-05T22:48:52.243Z,31.43
2023-03-05T22:51:21.254Z,31.40
2023-03-05T22:53:51.042Z,32.77
2023-03-05T22:56:21.238Z,31.10
2023-03-05T22:58:49.861Z,30.73
2023-03-05T23:01:19.711Z,31.70
2023-03-05T23:04:41.461Z,32.27
2023-03-05T23:07:10.027Z,30.70
2023-03-05T23:09:39.831Z,31.13
2023-03-05T23:12:08.954Z,33.80
2023-03-05T23:14:37.346Z,34.87
2023-03-05T23:17:05.892Z,34.43
2023-03-05T23:19:39.789Z,35.70
2023-03-05T23:22:10.142Z,36.93
2023-03-05T23:24:40.033Z,31.90
2023-03-05T23:27:09.282Z,32.47
2023-03-05T23:30:16.510Z,28.30
2023-03-05T23:32:46.565Z,25.83
2023-03-05T23:35:16.916Z,23.83
2023-03-05T23:37:45.568Z,20.80
2023-03-05T23:40:18.567Z,21.27
2023-03-05T23:42:47.473Z,22.67
2023-03-05T23:45:17.390Z,17.07
2023-03-05T23:47:48.313Z,16.97
2023-03-05T23:50:18.582Z,16.90
2023-03-05T23:52:47.429Z,16.10
2023-03-05T23:55:19.796Z,19.00
2023-03-05T23:57:49.511Z,15.73
